SCCI/PUQ METAR and TAF weather

Enter ICAO airport designator
Station Type Date Time Source
SCCI METAR 2020/11/27 14:41 UTC NOAA

SCCI 271441Z 28035G48KT 9999 SCT030 08/M00 Q0981 NOSIG


Station Type Date Time Source
SCCI Decoded METAR 2020/11/27 14:41 UTC NOAA

Punta Arenas, Chile (SCCI) 53-00S 070-51W 33M
Nov 27, 2020 - 09:41 AM EST / 2020.11.27 1441 UTC
Wind: from the W (280 degrees) at 40 MPH (35 KT) gusting to 55 MPH (48 KT):0
Visibility: greater than 7 mile(s):0
Sky conditions: partly cloudy
Temperature: 46 F (8 C)
Dew Point: 32 F (0 C)
Relative Humidity: 56%
Pressure (altimeter): 28.97 in. Hg (0981 hPa)
ob: SCCI 271441Z 28035G48KT 9999 SCT030 08/M00 Q0981 NOSIG
cycle: 14

Station Type Date Time Source
SCCI TAF 2020/11/27 12:03 UTC NOAA

TAF SCCI 271022Z 2712/2812 27025G40KT 9000 SCT030 TN03/2808Z TX10/2718Z
TEMPO 2714/2720 27035G52KT 4000 SHRA -SHGR BKN015TCU
BECMG 2721/2723 27035G45KT
TEMPO 2804/2807 -SHRA BKN035

Example: see airport list